sensor_id;sensor_type;location;lat;lon;timestamp;P1;durP1;ratioP1;P2;durP2;ratioP2
45694;SDS011;31408;45.468;9.124;2022-08-18T00:00:30;30.75;;;14.10;;
45694;SDS011;31408;45.468;9.124;2022-08-18T00:03:00;23.83;;;12.68;;
45694;SDS011;31408;45.468;9.124;2022-08-18T00:05:30;22.65;;;12.95;;
45694;SDS011;31408;45.468;9.124;2022-08-18T00:07:56;27.02;;;13.75;;
45694;SDS011;31408;45.468;9.124;2022-08-18T00:10:22;25.50;;;14.63;;
45694;SDS011;31408;45.468;9.124;2022-08-18T00:12:48;28.90;;;13.93;;
45694;SDS011;31408;45.468;9.124;2022-08-18T00:15:14;31.23;;;13.23;;
45694;SDS011;31408;45.468;9.124;2022-08-18T00:17:41;26.50;;;14.00;;
45694;SDS011;31408;45.468;9.124;2022-08-18T00:20:07;25.25;;;15.25;;
45694;SDS011;31408;45.468;9.124;2022-08-18T00:22:35;33.78;;;15.65;;
45694;SDS011;31408;45.468;9.124;2022-08-18T00:25:01;34.65;;;16.38;;
45694;SDS011;31408;45.468;9.124;2022-08-18T00:27:28;32.55;;;17.15;;
45694;SDS011;31408;45.468;9.124;2022-08-18T00:29:55;29.55;;;16.27;;
45694;SDS011;31408;45.468;9.124;2022-08-18T00:32:24;34.33;;;19.13;;
45694;SDS011;31408;45.468;9.124;2022-08-18T00:35:04;32.95;;;16.98;;
45694;SDS011;31408;45.468;9.124;2022-08-18T00:38:00;32.83;;;16.08;;
45694;SDS011;31408;45.468;9.124;2022-08-18T00:40:29;31.35;;;16.85;;
45694;SDS011;31408;45.468;9.124;2022-08-18T00:43:03;35.83;;;18.00;;
45694;SDS011;31408;45.468;9.124;2022-08-18T00:45:31;28.52;;;16.70;;
45694;SDS011;31408;45.468;9.124;2022-08-18T00:48:02;29.95;;;16.60;;
45694;SDS011;31408;45.468;9.124;2022-08-18T00:53:08;32.38;;;16.13;;
45694;SDS011;31408;45.468;9.124;2022-08-18T00:58:26;24.15;;;13.95;;
45694;SDS011;31408;45.468;9.124;2022-08-18T01:00:56;26.67;;;14.20;;
45694;SDS011;31408;45.468;9.124;2022-08-18T01:03:24;26.98;;;14.50;;
45694;SDS011;31408;45.468;9.124;2022-08-18T01:06:01;25.88;;;13.90;;
45694;SDS011;31408;45.468;9.124;2022-08-18T01:08:29;24.60;;;13.75;;
45694;SDS011;31408;45.468;9.124;2022-08-18T01:10:55;25.05;;;11.88;;
45694;SDS011;31408;45.468;9.124;2022-08-18T01:13:24;21.27;;;12.45;;
45694;SDS011;31408;45.468;9.124;2022-08-18T01:15:51;24.63;;;11.32;;
45694;SDS011;31408;45.468;9.124;2022-08-18T01:18:16;26.13;;;11.13;;
45694;SDS011;31408;45.468;9.124;2022-08-18T01:23:54;22.77;;;10.82;;
45694;SDS011;31408;45.468;9.124;2022-08-18T01:26:20;23.70;;;11.38;;
45694;SDS011;31408;45.468;9.124;2022-08-18T01:28:47;27.52;;;12.65;;
45694;SDS011;31408;45.468;9.124;2022-08-18T01:31:28;23.88;;;12.35;;
45694;SDS011;31408;45.468;9.124;2022-08-18T01:34:04;23.98;;;12.07;;
45694;SDS011;31408;45.468;9.124;2022-08-18T01:36:30;26.70;;;14.02;;
45694;SDS011;31408;45.468;9.124;2022-08-18T01:38:58;23.98;;;13.05;;
45694;SDS011;31408;45.468;9.124;2022-08-18T01:41:24;24.75;;;13.25;;
45694;SDS011;31408;45.468;9.124;2022-08-18T01:43:50;21.52;;;11.85;;
45694;SDS011;31408;45.468;9.124;2022-08-18T01:46:19;25.75;;;11.93;;
45694;SDS011;31408;45.468;9.124;2022-08-18T01:48:45;20.92;;;10.48;;
45694;SDS011;31408;45.468;9.124;2022-08-18T01:51:12;24.17;;;10.82;;
45694;SDS011;31408;45.468;9.124;2022-08-18T01:53:38;18.15;;;8.90;;
45694;SDS011;31408;45.468;9.124;2022-08-18T01:56:04;18.70;;;8.68;;
45694;SDS011;31408;45.468;9.124;2022-08-18T01:58:30;15.48;;;7.88;;
45694;SDS011;31408;45.468;9.124;2022-08-18T02:01:00;16.55;;;8.18;;
45694;SDS011;31408;45.468;9.124;2022-08-18T02:03:33;20.73;;;9.27;;
45694;SDS011;31408;45.468;9.124;2022-08-18T02:06:01;15.95;;;7.90;;
45694;SDS011;31408;45.468;9.124;2022-08-18T02:08:27;14.13;;;7.10;;
45694;SDS011;31408;45.468;9.124;2022-08-18T02:10:54;10.45;;;5.53;;
45694;SDS011;31408;45.468;9.124;2022-08-18T02:13:20;11.25;;;6.57;;
45694;SDS011;31408;45.468;9.124;2022-08-18T02:15:45;10.63;;;5.38;;
45694;SDS011;31408;45.468;9.124;2022-08-18T02:18:14;9.70;;;6.05;;
45694;SDS011;31408;45.468;9.124;2022-08-18T02:20:41;10.82;;;5.47;;
45694;SDS011;31408;45.468;9.124;2022-08-18T02:23:07;12.57;;;5.03;;
45694;SDS011;31408;45.468;9.124;2022-08-18T02:25:33;9.88;;;4.55;;
45694;SDS011;31408;45.468;9.124;2022-08-18T02:27:59;14.82;;;4.78;;
45694;SDS011;31408;45.468;9.124;2022-08-18T02:30:24;7.80;;;4.32;;
45694;SDS011;31408;45.468;9.124;2022-08-18T02:32:49;9.55;;;3.92;;
45694;SDS011;31408;45.468;9.124;2022-08-18T02:35:15;12.27;;;4.80;;
45694;SDS011;31408;45.468;9.124;2022-08-18T02:37:41;9.88;;;4.22;;
45694;SDS011;31408;45.468;9.124;2022-08-18T02:40:07;7.15;;;3.63;;
45694;SDS011;31408;45.468;9.124;2022-08-18T02:42:34;7.28;;;3.65;;
45694;SDS011;31408;45.468;9.124;2022-08-18T02:44:59;7.20;;;4.53;;
45694;SDS011;31408;45.468;9.124;2022-08-18T02:47:25;11.20;;;4.22;;
45694;SDS011;31408;45.468;9.124;2022-08-18T02:49:50;15.35;;;3.50;;
45694;SDS011;31408;45.468;9.124;2022-08-18T02:52:15;8.50;;;3.30;;
45694;SDS011;31408;45.468;9.124;2022-08-18T02:54:41;12.52;;;4.05;;
45694;SDS011;31408;45.468;9.124;2022-08-18T02:57:08;6.88;;;3.38;;
45694;SDS011;31408;45.468;9.124;2022-08-18T02:59:35;14.60;;;4.40;;
45694;SDS011;31408;45.468;9.124;2022-08-18T03:02:01;10.23;;;3.22;;
45694;SDS011;31408;45.468;9.124;2022-08-18T03:04:27;5.88;;;3.08;;
45694;SDS011;31408;45.468;9.124;2022-08-18T03:06:53;10.73;;;3.95;;
45694;SDS011;31408;45.468;9.124;2022-08-18T03:09:20;10.65;;;3.78;;
45694;SDS011;31408;45.468;9.124;2022-08-18T03:11:46;8.27;;;3.65;;
45694;SDS011;31408;45.468;9.124;2022-08-18T03:14:12;6.47;;;3.50;;
45694;SDS011;31408;45.468;9.124;2022-08-18T03:16:41;8.35;;;3.63;;
45694;SDS011;31408;45.468;9.124;2022-08-18T03:19:09;7.32;;;3.35;;
45694;SDS011;31408;45.468;9.124;2022-08-18T03:21:45;6.50;;;2.90;;
45694;SDS011;31408;45.468;9.124;2022-08-18T03:24:12;8.00;;;3.50;;
45694;SDS011;31408;45.468;9.124;2022-08-18T03:26:39;11.38;;;3.40;;
45694;SDS011;31408;45.468;9.124;2022-08-18T03:29:05;11.68;;;4.05;;
45694;SDS011;31408;45.468;9.124;2022-08-18T03:31:31;5.70;;;3.55;;
45694;SDS011;31408;45.468;9.124;2022-08-18T03:33:57;6.97;;;3.63;;
45694;SDS011;31408;45.468;9.124;2022-08-18T03:36:24;6.13;;;3.05;;
45694;SDS011;31408;45.468;9.124;2022-08-18T03:38:53;11.18;;;4.35;;
45694;SDS011;31408;45.468;9.124;2022-08-18T03:41:20;14.23;;;3.30;;
45694;SDS011;31408;45.468;9.124;2022-08-18T03:43:47;8.82;;;3.33;;
45694;SDS011;31408;45.468;9.124;2022-08-18T03:46:14;6.43;;;3.30;;
45694;SDS011;31408;45.468;9.124;2022-08-18T03:48:41;9.48;;;4.72;;
45694;SDS011;31408;45.468;9.124;2022-08-18T03:51:19;7.72;;;3.92;;
45694;SDS011;31408;45.468;9.124;2022-08-18T03:53:49;5.88;;;3.47;;
45694;SDS011;31408;45.468;9.124;2022-08-18T03:56:15;8.10;;;3.92;;
45694;SDS011;31408;45.468;9.124;2022-08-18T03:58:43;8.35;;;4.15;;
45694;SDS011;31408;45.468;9.124;2022-08-18T04:01:14;8.35;;;4.13;;
45694;SDS011;31408;45.468;9.124;2022-08-18T04:03:41;6.93;;;3.95;;
45694;SDS011;31408;45.468;9.124;2022-08-18T04:06:07;6.00;;;3.55;;
45694;SDS011;31408;45.468;9.124;2022-08-18T04:08:38;10.25;;;3.95;;
45694;SDS011;31408;45.468;9.124;2022-08-18T04:11:04;10.35;;;4.10;;
45694;SDS011;31408;45.468;9.124;2022-08-18T04:13:30;5.20;;;3.28;;
45694;SDS011;31408;45.468;9.124;2022-08-18T04:16:00;10.43;;;4.00;;
45694;SDS011;31408;45.468;9.124;2022-08-18T04:18:26;8.73;;;3.83;;
45694;SDS011;31408;45.468;9.124;2022-08-18T04:20:52;6.03;;;3.13;;
45694;SDS011;31408;45.468;9.124;2022-08-18T04:23:18;9.00;;;3.85;;
45694;SDS011;31408;45.468;9.124;2022-08-18T04:25:43;6.93;;;3.53;;
45694;SDS011;31408;45.468;9.124;2022-08-18T04:28:08;7.35;;;4.03;;
45694;SDS011;31408;45.468;9.124;2022-08-18T04:30:35;7.30;;;3.33;;
45694;SDS011;31408;45.468;9.124;2022-08-18T04:33:00;5.55;;;3.72;;
45694;SDS011;31408;45.468;9.124;2022-08-18T04:35:26;7.57;;;3.63;;
45694;SDS011;31408;45.468;9.124;2022-08-18T04:37:53;7.45;;;3.75;;
45694;SDS011;31408;45.468;9.124;2022-08-18T04:40:19;10.90;;;4.03;;
45694;SDS011;31408;45.468;9.124;2022-08-18T04:42:45;12.23;;;4.50;;
45694;SDS011;31408;45.468;9.124;2022-08-18T04:45:10;12.73;;;4.97;;
45694;SDS011;31408;45.468;9.124;2022-08-18T04:47:39;9.50;;;4.93;;
45694;SDS011;31408;45.468;9.124;2022-08-18T04:50:08;9.55;;;4.43;;
45694;SDS011;31408;45.468;9.124;2022-08-18T04:52:34;9.10;;;4.57;;
45694;SDS011;31408;45.468;9.124;2022-08-18T04:55:18;7.40;;;4.57;;
45694;SDS011;31408;45.468;9.124;2022-08-18T04:57:44;8.98;;;4.30;;
45694;SDS011;31408;45.468;9.124;2022-08-18T05:00:09;10.63;;;5.88;;
45694;SDS011;31408;45.468;9.124;2022-08-18T05:02:37;11.48;;;4.68;;
45694;SDS011;31408;45.468;9.124;2022-08-18T05:05:02;10.90;;;4.35;;
45694;SDS011;31408;45.468;9.124;2022-08-18T05:07:29;10.57;;;4.60;;
45694;SDS011;31408;45.468;9.124;2022-08-18T05:09:54;10.68;;;4.97;;
45694;SDS011;31408;45.468;9.124;2022-08-18T05:12:20;10.88;;;4.22;;
45694;SDS011;31408;45.468;9.124;2022-08-18T05:14:45;10.60;;;4.45;;
45694;SDS011;31408;45.468;9.124;2022-08-18T05:17:12;14.43;;;5.30;;
45694;SDS011;31408;45.468;9.124;2022-08-18T05:19:38;7.47;;;3.92;;
45694;SDS011;31408;45.468;9.124;2022-08-18T05:22:05;12.18;;;4.82;;
45694;SDS011;31408;45.468;9.124;2022-08-18T05:24:31;9.65;;;5.75;;
45694;SDS011;31408;45.468;9.124;2022-08-18T05:26:59;11.98;;;4.97;;
45694;SDS011;31408;45.468;9.124;2022-08-18T05:29:25;9.73;;;3.95;;
45694;SDS011;31408;45.468;9.124;2022-08-18T05:31:51;13.68;;;5.13;;
45694;SDS011;31408;45.468;9.124;2022-08-18T05:34:18;9.25;;;4.45;;
45694;SDS011;31408;45.468;9.124;2022-08-18T05:41:53;10.43;;;4.97;;
45694;SDS011;31408;45.468;9.124;2022-08-18T05:44:25;14.40;;;6.10;;
45694;SDS011;31408;45.468;9.124;2022-08-18T05:46:54;13.73;;;6.15;;
45694;SDS011;31408;45.468;9.124;2022-08-18T05:49:23;10.32;;;5.63;;
45694;SDS011;31408;45.468;9.124;2022-08-18T05:51:55;17.95;;;6.70;;
45694;SDS011;31408;45.468;9.124;2022-08-18T05:54:22;12.30;;;6.65;;
45694;SDS011;31408;45.468;9.124;2022-08-18T05:57:08;13.27;;;6.50;;
45694;SDS011;31408;45.468;9.124;2022-08-18T05:59:38;10.77;;;5.78;;
45694;SDS011;31408;45.468;9.124;2022-08-18T06:02:14;16.13;;;6.78;;
45694;SDS011;31408;45.468;9.124;2022-08-18T06:05:05;12.82;;;6.13;;
45694;SDS011;31408;45.468;9.124;2022-08-18T06:07:38;15.40;;;7.00;;
45694;SDS011;31408;45.468;9.124;2022-08-18T06:10:08;13.30;;;6.70;;
45694;SDS011;31408;45.468;9.124;2022-08-18T06:12:39;16.83;;;6.38;;
45694;SDS011;31408;45.468;9.124;2022-08-18T06:15:16;18.50;;;7.30;;
45694;SDS011;31408;45.468;9.124;2022-08-18T06:18:00;19.02;;;7.20;;
45694;SDS011;31408;45.468;9.124;2022-08-18T06:26:39;18.23;;;6.28;;
45694;SDS011;31408;45.468;9.124;2022-08-18T06:29:16;14.05;;;6.60;;
45694;SDS011;31408;45.468;9.124;2022-08-18T06:34:31;13.10;;;6.38;;
45694;SDS011;31408;45.468;9.124;2022-08-18T06:39:46;14.43;;;6.55;;
45694;SDS011;31408;45.468;9.124;2022-08-18T06:42:18;16.03;;;6.47;;
45694;SDS011;31408;45.468;9.124;2022-08-18T06:44:50;11.25;;;6.20;;
45694;SDS011;31408;45.468;9.124;2022-08-18T06:47:29;16.45;;;6.85;;
45694;SDS011;31408;45.468;9.124;2022-08-18T06:52:56;13.23;;;6.90;;
45694;SDS011;31408;45.468;9.124;2022-08-18T06:58:01;12.30;;;6.15;;
45694;SDS011;31408;45.468;9.124;2022-08-18T07:00:31;12.57;;;5.82;;
45694;SDS011;31408;45.468;9.124;2022-08-18T07:03:00;16.33;;;6.35;;
45694;SDS011;31408;45.468;9.124;2022-08-18T07:05:33;11.93;;;6.18;;
45694;SDS011;31408;45.468;9.124;2022-08-18T07:08:05;10.90;;;6.60;;
45694;SDS011;31408;45.468;9.124;2022-08-18T07:10:43;17.20;;;6.82;;
45694;SDS011;31408;45.468;9.124;2022-08-18T07:15:53;12.05;;;7.15;;
45694;SDS011;31408;45.468;9.124;2022-08-18T07:18:24;17.90;;;7.72;;
45694;SDS011;31408;45.468;9.124;2022-08-18T07:20:54;13.82;;;6.30;;
45694;SDS011;31408;45.468;9.124;2022-08-18T07:23:23;14.10;;;7.10;;
45694;SDS011;31408;45.468;9.124;2022-08-18T07:25:51;17.10;;;6.78;;
45694;SDS011;31408;45.468;9.124;2022-08-18T07:28:32;15.43;;;6.15;;
45694;SDS011;31408;45.468;9.124;2022-08-18T07:31:34;16.77;;;6.70;;
45694;SDS011;31408;45.468;9.124;2022-08-18T07:39:44;14.63;;;6.50;;
45694;SDS011;31408;45.468;9.124;2022-08-18T07:42:41;12.65;;;6.25;;
45694;SDS011;31408;45.468;9.124;2022-08-18T07:48:12;15.27;;;5.75;;
45694;SDS011;31408;45.468;9.124;2022-08-18T07:56:25;11.73;;;6.25;;
45694;SDS011;31408;45.468;9.124;2022-08-18T07:59:15;12.82;;;6.28;;
45694;SDS011;31408;45.468;9.124;2022-08-18T08:02:18;11.48;;;5.70;;
45694;SDS011;31408;45.468;9.124;2022-08-18T08:07:52;13.80;;;7.53;;
45694;SDS011;31408;45.468;9.124;2022-08-18T08:18:57;20.13;;;7.80;;
45694;SDS011;31408;45.468;9.124;2022-08-18T08:21:31;14.85;;;7.45;;
45694;SDS011;31408;45.468;9.124;2022-08-18T08:24:16;11.65;;;6.25;;
45694;SDS011;31408;45.468;9.124;2022-08-18T08:26:52;15.65;;;6.03;;
45694;SDS011;31408;45.468;9.124;2022-08-18T08:32:21;13.30;;;6.07;;
45694;SDS011;31408;45.468;9.124;2022-08-18T08:35:03;10.57;;;6.18;;
45694;SDS011;31408;45.468;9.124;2022-08-18T08:37:41;17.77;;;7.13;;
45694;SDS011;31408;45.468;9.124;2022-08-18T08:40:27;14.27;;;6.30;;
45694;SDS011;31408;45.468;9.124;2022-08-18T08:43:00;12.00;;;5.90;;
45694;SDS011;31408;45.468;9.124;2022-08-18T08:45:29;13.77;;;5.45;;
45694;SDS011;31408;45.468;9.124;2022-08-18T08:50:47;14.10;;;6.82;;
45694;SDS011;31408;45.468;9.124;2022-08-18T08:53:19;10.00;;;5.88;;
45694;SDS011;31408;45.468;9.124;2022-08-18T08:55:48;14.48;;;6.60;;
45694;SDS011;31408;45.468;9.124;2022-08-18T08:58:18;15.35;;;7.07;;
45694;SDS011;31408;45.468;9.124;2022-08-18T09:00:48;15.45;;;6.32;;
45694;SDS011;31408;45.468;9.124;2022-08-18T09:09:14;15.90;;;9.02;;
45694;SDS011;31408;45.468;9.124;2022-08-18T09:19:53;21.60;;;9.05;;
45694;SDS011;31408;45.468;9.124;2022-08-18T09:24:58;21.20;;;8.98;;
45694;SDS011;31408;45.468;9.124;2022-08-18T09:30:06;17.20;;;8.77;;
45694;SDS011;31408;45.468;9.124;2022-08-18T09:32:36;21.30;;;10.15;;
45694;SDS011;31408;45.468;9.124;2022-08-18T09:37:59;19.10;;;8.82;;
45694;SDS011;31408;45.468;9.124;2022-08-18T09:40:52;22.33;;;9.35;;
45694;SDS011;31408;45.468;9.124;2022-08-18T09:51:46;21.65;;;9.88;;
45694;SDS011;31408;45.468;9.124;2022-08-18T09:54:17;18.25;;;9.48;;
45694;SDS011;31408;45.468;9.124;2022-08-18T10:02:02;24.17;;;10.48;;
45694;SDS011;31408;45.468;9.124;2022-08-18T10:04:34;19.08;;;10.60;;
45694;SDS011;31408;45.468;9.124;2022-08-18T10:07:17;22.08;;;10.52;;
45694;SDS011;31408;45.468;9.124;2022-08-18T10:20:38;20.30;;;10.25;;
45694;SDS011;31408;45.468;9.124;2022-08-18T10:23:10;20.30;;;9.30;;
45694;SDS011;31408;45.468;9.124;2022-08-18T10:25:42;21.25;;;10.55;;
45694;SDS011;31408;45.468;9.124;2022-08-18T10:28:50;23.10;;;11.32;;
45694;SDS011;31408;45.468;9.124;2022-08-18T10:31:16;26.65;;;11.63;;
45694;SDS011;31408;45.468;9.124;2022-08-18T10:36:45;23.60;;;10.35;;
45694;SDS011;31408;45.468;9.124;2022-08-18T10:39:17;25.70;;;11.70;;
45694;SDS011;31408;45.468;9.124;2022-08-18T10:42:03;24.77;;;12.30;;
45694;SDS011;31408;45.468;9.124;2022-08-18T10:44:36;20.33;;;9.85;;
45694;SDS011;31408;45.468;9.124;2022-08-18T10:47:07;23.35;;;10.63;;
45694;SDS011;31408;45.468;9.124;2022-08-18T10:49:33;23.75;;;11.43;;
45694;SDS011;31408;45.468;9.124;2022-08-18T11:00:19;23.45;;;12.07;;
45694;SDS011;31408;45.468;9.124;2022-08-18T11:03:01;22.90;;;10.95;;
45694;SDS011;31408;45.468;9.124;2022-08-18T11:05:34;20.92;;;10.60;;
45694;SDS011;31408;45.468;9.124;2022-08-18T11:08:01;22.42;;;10.93;;
45694;SDS011;31408;45.468;9.124;2022-08-18T11:10:36;23.52;;;9.95;;
45694;SDS011;31408;45.468;9.124;2022-08-18T11:13:25;23.92;;;9.43;;
45694;SDS011;31408;45.468;9.124;2022-08-18T11:18:47;16.50;;;7.70;;
45694;SDS011;31408;45.468;9.124;2022-08-18T11:24:03;15.90;;;6.50;;
45694;SDS011;31408;45.468;9.124;2022-08-18T11:26:40;14.77;;;7.38;;
45694;SDS011;31408;45.468;9.124;2022-08-18T11:29:24;15.20;;;7.18;;
45694;SDS011;31408;45.468;9.124;2022-08-18T11:34:27;15.80;;;6.72;;
45694;SDS011;31408;45.468;9.124;2022-08-18T11:36:58;18.35;;;7.88;;
45694;SDS011;31408;45.468;9.124;2022-08-18T11:39:25;16.38;;;6.95;;
45694;SDS011;31408;45.468;9.124;2022-08-18T11:41:51;13.88;;;6.70;;
45694;SDS011;31408;45.468;9.124;2022-08-18T11:44:18;12.90;;;6.25;;
45694;SDS011;31408;45.468;9.124;2022-08-18T11:46:44;12.50;;;6.43;;
45694;SDS011;31408;45.468;9.124;2022-08-18T11:49:17;12.95;;;6.80;;
45694;SDS011;31408;45.468;9.124;2022-08-18T11:51:57;12.50;;;6.47;;
45694;SDS011;31408;45.468;9.124;2022-08-18T11:54:35;12.20;;;6.00;;
45694;SDS011;31408;45.468;9.124;2022-08-18T12:05:52;10.48;;;5.60;;
45694;SDS011;31408;45.468;9.124;2022-08-18T12:11:00;13.52;;;6.25;;
45694;SDS011;31408;45.468;9.124;2022-08-18T12:13:42;9.73;;;5.80;;
45694;SDS011;31408;45.468;9.124;2022-08-18T12:16:11;11.90;;;6.00;;
45694;SDS011;31408;45.468;9.124;2022-08-18T12:18:39;11.75;;;5.72;;
45694;SDS011;31408;45.468;9.124;2022-08-18T12:21:05;14.57;;;6.20;;
45694;SDS011;31408;45.468;9.124;2022-08-18T12:23:31;10.95;;;5.80;;
45694;SDS011;31408;45.468;9.124;2022-08-18T12:25:58;11.00;;;6.18;;
45694;SDS011;31408;45.468;9.124;2022-08-18T12:28:23;14.20;;;5.90;;
45694;SDS011;31408;45.468;9.124;2022-08-18T12:30:50;9.50;;;4.93;;
45694;SDS011;31408;45.468;9.124;2022-08-18T12:33:16;11.95;;;4.82;;
45694;SDS011;31408;45.468;9.124;2022-08-18T12:35:41;10.20;;;5.28;;
45694;SDS011;31408;45.468;9.124;2022-08-18T12:38:08;9.80;;;5.13;;
45694;SDS011;31408;45.468;9.124;2022-08-18T12:40:34;11.48;;;5.25;;
45694;SDS011;31408;45.468;9.124;2022-08-18T12:43:00;12.85;;;5.28;;
45694;SDS011;31408;45.468;9.124;2022-08-18T12:45:26;8.60;;;4.18;;
45694;SDS011;31408;45.468;9.124;2022-08-18T12:47:51;11.65;;;4.90;;
45694;SDS011;31408;45.468;9.124;2022-08-18T12:50:17;9.25;;;4.25;;
45694;SDS011;31408;45.468;9.124;2022-08-18T12:52:42;11.40;;;5.20;;
45694;SDS011;31408;45.468;9.124;2022-08-18T12:55:08;7.15;;;4.10;;
45694;SDS011;31408;45.468;9.124;2022-08-18T12:57:34;9.10;;;4.20;;
45694;SDS011;31408;45.468;9.124;2022-08-18T13:00:00;10.20;;;5.47;;
45694;SDS011;31408;45.468;9.124;2022-08-18T13:02:25;10.73;;;4.85;;
45694;SDS011;31408;45.468;9.124;2022-08-18T13:04:50;9.90;;;4.88;;
45694;SDS011;31408;45.468;9.124;2022-08-18T13:07:16;6.63;;;3.67;;
45694;SDS011;31408;45.468;9.124;2022-08-18T13:09:42;8.10;;;4.22;;
45694;SDS011;31408;45.468;9.124;2022-08-18T13:12:08;6.65;;;3.65;;
45694;SDS011;31408;45.468;9.124;2022-08-18T13:14:34;6.43;;;3.80;;
45694;SDS011;31408;45.468;9.124;2022-08-18T13:17:00;6.32;;;3.40;;
45694;SDS011;31408;45.468;9.124;2022-08-18T13:19:26;7.35;;;3.88;;
45694;SDS011;31408;45.468;9.124;2022-08-18T13:21:52;7.20;;;3.35;;
45694;SDS011;31408;45.468;9.124;2022-08-18T13:24:17;8.00;;;4.40;;
45694;SDS011;31408;45.468;9.124;2022-08-18T13:26:44;8.90;;;4.35;;
45694;SDS011;31408;45.468;9.124;2022-08-18T13:29:10;6.65;;;3.72;;
45694;SDS011;31408;45.468;9.124;2022-08-18T13:31:36;10.95;;;4.50;;
45694;SDS011;31408;45.468;9.124;2022-08-18T13:34:02;9.23;;;5.10;;
45694;SDS011;31408;45.468;9.124;2022-08-18T13:36:29;7.88;;;4.03;;
45694;SDS011;31408;45.468;9.124;2022-08-18T13:39:09;7.72;;;3.83;;
45694;SDS011;31408;45.468;9.124;2022-08-18T13:41:35;5.97;;;3.13;;
45694;SDS011;31408;45.468;9.124;2022-08-18T13:44:01;4.85;;;3.42;;
45694;SDS011;31408;45.468;9.124;2022-08-18T13:46:27;5.53;;;3.30;;
45694;SDS011;31408;45.468;9.124;2022-08-18T13:48:52;4.40;;;3.30;;
45694;SDS011;31408;45.468;9.124;2022-08-18T13:51:19;7.57;;;3.90;;
45694;SDS011;31408;45.468;9.124;2022-08-18T13:53:46;4.93;;;3.47;;
45694;SDS011;31408;45.468;9.124;2022-08-18T13:56:12;7.80;;;3.42;;
45694;SDS011;31408;45.468;9.124;2022-08-18T13:58:37;7.90;;;2.90;;
45694;SDS011;31408;45.468;9.124;2022-08-18T14:01:04;6.60;;;2.88;;
45694;SDS011;31408;45.468;9.124;2022-08-18T14:03:35;6.57;;;3.00;;
45694;SDS011;31408;45.468;9.124;2022-08-18T14:06:01;11.73;;;3.28;;
45694;SDS011;31408;45.468;9.124;2022-08-18T14:08:27;5.88;;;3.08;;
45694;SDS011;31408;45.468;9.124;2022-08-18T14:10:55;5.25;;;2.88;;
45694;SDS011;31408;45.468;9.124;2022-08-18T14:13:22;4.28;;;2.60;;
45694;SDS011;31408;45.468;9.124;2022-08-18T14:15:48;9.82;;;3.13;;
45694;SDS011;31408;45.468;9.124;2022-08-18T14:18:15;5.68;;;2.90;;
45694;SDS011;31408;45.468;9.124;2022-08-18T14:20:41;4.80;;;2.55;;
45694;SDS011;31408;45.468;9.124;2022-08-18T14:26:11;8.65;;;3.00;;
45694;SDS011;31408;45.468;9.124;2022-08-18T14:28:58;7.50;;;2.60;;
45694;SDS011;31408;45.468;9.124;2022-08-18T14:31:24;3.92;;;2.83;;
45694;SDS011;31408;45.468;9.124;2022-08-18T14:33:50;7.88;;;3.13;;
45694;SDS011;31408;45.468;9.124;2022-08-18T14:36:16;5.93;;;3.30;;
45694;SDS011;31408;45.468;9.124;2022-08-18T14:38:41;7.38;;;3.65;;
45694;SDS011;31408;45.468;9.124;2022-08-18T14:41:07;4.47;;;2.92;;
45694;SDS011;31408;45.468;9.124;2022-08-18T14:43:35;7.43;;;3.08;;
45694;SDS011;31408;45.468;9.124;2022-08-18T14:46:04;5.13;;;2.63;;
45694;SDS011;31408;45.468;9.124;2022-08-18T14:48:32;3.97;;;2.40;;
45694;SDS011;31408;45.468;9.124;2022-08-18T14:51:01;4.97;;;2.72;;
45694;SDS011;31408;45.468;9.124;2022-08-18T14:53:27;5.63;;;2.10;;
45694;SDS011;31408;45.468;9.124;2022-08-18T14:55:55;3.92;;;1.85;;
45694;SDS011;31408;45.468;9.124;2022-08-18T14:58:22;6.20;;;1.98;;
45694;SDS011;31408;45.468;9.124;2022-08-18T15:01:00;8.07;;;2.97;;
45694;SDS011;31408;45.468;9.124;2022-08-18T15:03:28;6.47;;;1.65;;
45694;SDS011;31408;45.468;9.124;2022-08-18T15:05:54;4.70;;;1.73;;
45694;SDS011;31408;45.468;9.124;2022-08-18T15:08:21;3.67;;;2.47;;
45694;SDS011;31408;45.468;9.124;2022-08-18T15:10:47;4.00;;;2.17;;
45694;SDS011;31408;45.468;9.124;2022-08-18T15:13:13;4.07;;;2.10;;
45694;SDS011;31408;45.468;9.124;2022-08-18T15:15:39;4.15;;;1.92;;
45694;SDS011;31408;45.468;9.124;2022-08-18T15:18:05;6.15;;;2.03;;
45694;SDS011;31408;45.468;9.124;2022-08-18T15:20:31;2.95;;;1.75;;
45694;SDS011;31408;45.468;9.124;2022-08-18T15:23:00;7.75;;;2.10;;
45694;SDS011;31408;45.468;9.124;2022-08-18T15:25:45;4.05;;;1.50;;
45694;SDS011;31408;45.468;9.124;2022-08-18T15:28:12;4.72;;;2.15;;
45694;SDS011;31408;45.468;9.124;2022-08-18T15:30:43;3.17;;;2.05;;
45694;SDS011;31408;45.468;9.124;2022-08-18T15:33:10;2.28;;;1.95;;
45694;SDS011;31408;45.468;9.124;2022-08-18T15:35:41;3.83;;;1.60;;
45694;SDS011;31408;45.468;9.124;2022-08-18T15:38:08;3.88;;;1.67;;
45694;SDS011;31408;45.468;9.124;2022-08-18T15:40:36;4.15;;;1.80;;
45694;SDS011;31408;45.468;9.124;2022-08-18T15:43:04;4.63;;;1.35;;
45694;SDS011;31408;45.468;9.124;2022-08-18T15:45:33;0.85;;;0.77;;
45694;SDS011;31408;45.468;9.124;2022-08-18T15:48:02;1.67;;;1.20;;
45694;SDS011;31408;45.468;9.124;2022-08-18T15:50:28;3.50;;;1.48;;
45694;SDS011;31408;45.468;9.124;2022-08-18T15:52:57;1.58;;;0.95;;
45694;SDS011;31408;45.468;9.124;2022-08-18T15:55:25;3.30;;;1.15;;
45694;SDS011;31408;45.468;9.124;2022-08-18T15:57:52;2.55;;;0.95;;
45694;SDS011;31408;45.468;9.124;2022-08-18T16:00:18;2.38;;;1.02;;
45694;SDS011;31408;45.468;9.124;2022-08-18T16:02:51;5.85;;;1.08;;
45694;SDS011;31408;45.468;9.124;2022-08-18T16:05:21;3.63;;;1.73;;
45694;SDS011;31408;45.468;9.124;2022-08-18T16:07:48;3.35;;;0.93;;
45694;SDS011;31408;45.468;9.124;2022-08-18T16:10:15;1.98;;;0.90;;
45694;SDS011;31408;45.468;9.124;2022-08-18T16:12:44;0.77;;;0.60;;
45694;SDS011;31408;45.468;9.124;2022-08-18T16:15:11;4.50;;;1.30;;
45694;SDS011;31408;45.468;9.124;2022-08-18T16:17:37;1.15;;;0.70;;
45694;SDS011;31408;45.468;9.124;2022-08-18T16:20:03;1.20;;;0.73;;
45694;SDS011;31408;45.468;9.124;2022-08-18T16:22:29;1.48;;;0.90;;
45694;SDS011;31408;45.468;9.124;2022-08-18T16:24:57;3.90;;;0.90;;
45694;SDS011;31408;45.468;9.124;2022-08-18T16:27:22;2.92;;;0.60;;
45694;SDS011;31408;45.468;9.124;2022-08-18T16:29:48;2.33;;;0.95;;
45694;SDS011;31408;45.468;9.124;2022-08-18T16:32:13;5.30;;;1.33;;
45694;SDS011;31408;45.468;9.124;2022-08-18T16:34:40;5.88;;;1.35;;
45694;SDS011;31408;45.468;9.124;2022-08-18T16:37:05;4.82;;;1.05;;
45694;SDS011;31408;45.468;9.124;2022-08-18T16:39:33;1.35;;;1.02;;
45694;SDS011;31408;45.468;9.124;2022-08-18T16:41:59;4.20;;;1.30;;
45694;SDS011;31408;45.468;9.124;2022-08-18T16:44:24;6.15;;;1.40;;
45694;SDS011;31408;45.468;9.124;2022-08-18T16:46:53;4.07;;;1.33;;
45694;SDS011;31408;45.468;9.124;2022-08-18T16:49:18;2.20;;;0.90;;
45694;SDS011;31408;45.468;9.124;2022-08-18T16:51:44;2.13;;;0.88;;
45694;SDS011;31408;45.468;9.124;2022-08-18T16:54:10;7.07;;;0.93;;
45694;SDS011;31408;45.468;9.124;2022-08-18T16:56:36;2.47;;;0.90;;
45694;SDS011;31408;45.468;9.124;2022-08-18T16:59:01;4.68;;;1.27;;
45694;SDS011;31408;45.468;9.124;2022-08-18T17:01:46;1.00;;;0.85;;
45694;SDS011;31408;45.468;9.124;2022-08-18T17:04:30;2.00;;;1.05;;
45694;SDS011;31408;45.468;9.124;2022-08-18T17:07:00;3.17;;;0.70;;
45694;SDS011;31408;45.468;9.124;2022-08-18T17:09:27;2.47;;;0.93;;
45694;SDS011;31408;45.468;9.124;2022-08-18T17:11:53;2.33;;;0.80;;
45694;SDS011;31408;45.468;9.124;2022-08-18T17:14:19;2.03;;;1.17;;
45694;SDS011;31408;45.468;9.124;2022-08-18T17:16:45;2.85;;;1.00;;